createdAt,value
2023-03-10T00:01:30.214Z,20.13
2023-03-10T00:04:00.829Z,17.80
2023-03-10T00:06:33.344Z,18.17
2023-03-10T00:09:02.261Z,16.80
2023-03-10T00:11:30.905Z,17.58
2023-03-10T00:13:59.420Z,17.40
2023-03-10T00:16:30.772Z,16.33
2023-03-10T00:18:59.338Z,18.27
2023-03-10T00:21:30.465Z,17.48
2023-03-10T00:23:59.139Z,17.30
2023-03-10T00:26:29.236Z,15.77
2023-03-10T00:28:57.506Z,14.20
2023-03-10T00:31:28.076Z,13.20
2023-03-10T00:33:57.870Z,12.82
2023-03-10T00:36:29.545Z,10.63
2023-03-10T00:39:01.337Z,11.32
2023-03-10T00:41:31.716Z,10.40
2023-03-10T00:44:01.446Z,11.30
2023-03-10T00:46:30.792Z,9.23
2023-03-10T00:48:59.668Z,8.40
2023-03-10T00:51:28.728Z,8.18
2023-03-10T00:53:57.194Z,8.77
2023-03-10T00:56:27.174Z,8.20
2023-03-10T00:58:58.423Z,10.07
2023-03-10T01:01:30.032Z,8.70
2023-03-10T01:04:02.596Z,9.35
2023-03-10T01:06:33.176Z,8.35
2023-03-10T01:09:02.131Z,8.82
2023-03-10T01:11:31.976Z,8.50
2023-03-10T01:14:03.125Z,8.35
2023-03-10T01:16:31.688Z,11.27
2023-03-10T01:19:00.407Z,11.48
2023-03-10T01:21:32.220Z,12.32
2023-03-10T01:24:01.696Z,14.90
2023-03-10T01:26:30.440Z,16.80
2023-03-10T01:28:59.836Z,16.10
2023-03-10T01:31:28.685Z,16.98
2023-03-10T01:33:57.968Z,19.77
2023-03-10T01:36:28.755Z,20.77
2023-03-10T01:38:58.253Z,21.00
2023-03-10T01:41:27.194Z,18.88
2023-03-10T01:43:58.446Z,19.58
2023-03-10T01:46:39.714Z,19.15
2023-03-10T01:49:18.481Z,20.77
2023-03-10T01:51:52.006Z,20.55
2023-03-10T01:54:25.881Z,23.70
2023-03-10T01:56:56.640Z,22.50
2023-03-10T01:59:27.829Z,24.42
2023-03-10T02:02:00.863Z,25.33
2023-03-10T02:04:44.619Z,27.42
2023-03-10T02:07:14.322Z,25.05
2023-03-10T02:09:45.777Z,23.35
2023-03-10T02:12:15.931Z,22.42
2023-03-10T02:14:45.851Z,24.27
2023-03-10T02:17:18.158Z,23.55
2023-03-10T02:20:10.873Z,26.58
2023-03-10T02:22:40.666Z,26.92
2023-03-10T02:25:28.400Z,28.40
2023-03-10T02:27:57.109Z,29.95
2023-03-10T02:30:28.292Z,30.05
2023-03-10T02:33:02.696Z,30.70
2023-03-10T02:35:31.067Z,32.03
2023-03-10T02:38:04.275Z,31.42
2023-03-10T02:40:50.482Z,30.55
2023-03-10T02:43:33.470Z,32.03
2023-03-10T02:46:21.336Z,29.25
2023-03-10T02:48:49.610Z,31.48
2023-03-10T02:51:26.890Z,30.35
2023-03-10T02:53:57.504Z,31.90
2023-03-10T02:56:28.373Z,34.00
2023-03-10T02:58:59.760Z,32.13
2023-03-10T03:01:30.493Z,34.33
2023-03-10T03:03:59.819Z,35.00
2023-03-10T03:06:28.107Z,35.08
2023-03-10T03:08:56.540Z,35.75
2023-03-10T03:11:26.487Z,35.22
2023-03-10T03:13:55.427Z,36.03
2023-03-10T03:16:24.922Z,35.38
2023-03-10T03:18:58.405Z,33.55
2023-03-10T03:21:27.768Z,35.75
2023-03-10T03:23:56.801Z,33.80
2023-03-10T03:26:27.460Z,34.17
2023-03-10T03:29:12.672Z,33.60
2023-03-10T03:31:42.782Z,34.75
2023-03-10T03:34:30.274Z,34.17
2023-03-10T03:37:01.927Z,33.15
2023-03-10T03:39:35.027Z,33.28
2023-03-10T03:42:06.846Z,34.22
2023-03-10T03:44:44.227Z,32.97
2023-03-10T03:47:13.152Z,33.58
2023-03-10T03:49:41.703Z,33.28
2023-03-10T03:52:10.836Z,33.03
2023-03-10T03:54:39.634Z,34.42
2023-03-10T03:57:08.224Z,33.42
2023-03-10T03:59:36.905Z,33.25
2023-03-10T04:02:05.626Z,33.65
2023-03-10T04:04:34.475Z,33.60
2023-03-10T04:07:03.865Z,32.92
2023-03-10T04:09:32.586Z,34.70
2023-03-10T04:12:01.505Z,32.50
2023-03-10T04:14:30.906Z,34.63
2023-03-10T04:16:59.672Z,32.78
2023-03-10T04:19:27.989Z,32.17
2023-03-10T04:22:02.912Z,32.42
2023-03-10T04:24:33.796Z,30.30
2023-03-10T04:27:02.592Z,31.42
2023-03-10T04:29:31.632Z,30.67
2023-03-10T04:32:05.489Z,31.23
2023-03-10T04:34:37.197Z,30.97
2023-03-10T04:37:05.960Z,28.70
2023-03-10T04:39:34.874Z,31.02
2023-03-10T04:42:03.553Z,29.98
2023-03-10T04:44:32.151Z,29.40
2023-03-10T04:47:04.026Z,30.10
2023-03-10T04:49:33.113Z,29.05
2023-03-10T04:52:02.409Z,30.02
2023-03-10T04:54:30.824Z,29.23
2023-03-10T04:56:59.826Z,28.38
2023-03-10T04:59:28.346Z,28.33
2023-03-10T05:01:56.840Z,26.27
2023-03-10T05:04:25.771Z,26.40
2023-03-10T05:06:55.981Z,24.38
2023-03-10T05:09:29.189Z,26.45
2023-03-10T05:11:58.102Z,27.20
2023-03-10T05:14:29.501Z,24.95
2023-03-10T05:16:58.425Z,26.15
2023-03-10T19:22:57.694Z,1.10
2023-03-10T19:25:26.093Z,1.52
2023-03-10T19:27:54.217Z,0.68
2023-03-10T19:30:22.698Z,1.00
2023-03-10T19:32:51.525Z,0.90
2023-03-10T19:35:20.015Z,0.90
2023-03-10T19:37:48.213Z,1.30
2023-03-10T19:40:19.483Z,1.20
2023-03-10T19:42:47.970Z,1.98
2023-03-10T19:45:18.096Z,1.23
2023-03-10T19:47:47.377Z,2.03
2023-03-10T19:50:17.673Z,3.83
2023-03-10T19:52:48.826Z,1.75
2023-03-10T19:55:24.021Z,1.65
2023-03-10T19:57:54.329Z,1.10
2023-03-10T20:00:25.818Z,2.45
2023-03-10T20:02:55.258Z,1.60
2023-03-10T20:05:25.808Z,1.00
2023-03-10T20:07:54.088Z,1.15
2023-03-10T20:10:22.449Z,1.80
2023-03-10T20:12:53.769Z,0.82
2023-03-10T20:15:22.294Z,1.50
2023-03-10T20:17:50.760Z,1.10
2023-03-10T20:20:20.518Z,1.38
2023-03-10T20:22:49.788Z,1.30
2023-03-10T20:25:20.042Z,1.35
2023-03-10T20:27:50.787Z,1.17
2023-03-10T20:30:26.660Z,1.40
2023-03-10T20:32:56.742Z,1.10
2023-03-10T20:35:25.710Z,1.33
2023-03-10T20:37:54.379Z,1.25
2023-03-10T20:40:25.028Z,1.35
2023-03-10T20:42:59.057Z,1.17
2023-03-10T20:45:29.938Z,1.08
2023-03-10T20:47:59.541Z,1.10
2023-03-10T20:50:37.271Z,1.10
2023-03-10T20:53:08.504Z,1.08
2023-03-10T20:55:37.467Z,1.13
2023-03-10T20:58:05.622Z,1.00
2023-03-10T21:00:36.650Z,0.93
2023-03-10T21:03:05.029Z,1.77
2023-03-10T21:05:33.397Z,1.25
2023-03-10T21:08:04.060Z,0.98
2023-03-10T21:10:33.796Z,1.30
2023-03-10T21:13:08.098Z,1.02
2023-03-10T21:15:55.060Z,1.00
2023-03-10T21:18:26.416Z,1.13
2023-03-10T21:20:56.384Z,1.25
2023-03-10T21:23:30.006Z,1.05
2023-03-10T21:26:48.059Z,1.05
2023-03-10T21:29:36.120Z,1.23
2023-03-10T21:32:15.746Z,1.23
2023-03-10T21:34:45.333Z,1.00
2023-03-10T21:37:16.000Z,1.08
2023-03-10T21:39:57.384Z,0.90
2023-03-10T21:42:44.584Z,1.42
2023-03-10T21:45:25.833Z,1.00
2023-03-10T21:47:54.073Z,0.90
2023-03-10T21:50:22.584Z,0.73
2023-03-10T21:52:50.917Z,1.10
2023-03-10T21:55:24.223Z,1.10
2023-03-10T21:57:56.415Z,1.00
2023-03-10T22:00:25.027Z,1.00
2023-03-10T22:02:53.582Z,1.10
2023-03-10T22:05:22.150Z,0.80
2023-03-10T22:07:51.245Z,0.70
2023-03-10T22:10:19.482Z,0.70
2023-03-10T22:12:48.513Z,0.85
2023-03-10T22:15:21.122Z,1.20
2023-03-10T22:17:49.650Z,1.45
2023-03-10T22:20:24.730Z,0.82
2023-03-10T22:22:53.850Z,0.60
2023-03-10T22:25:22.213Z,0.70
2023-03-10T22:27:53.255Z,0.77
2023-03-10T22:30:23.959Z,0.77
2023-03-10T22:32:52.380Z,0.95
2023-03-10T22:35:22.241Z,1.45
2023-03-10T22:37:51.817Z,1.08
2023-03-10T22:40:22.367Z,0.98
2023-03-10T22:42:54.688Z,1.05
2023-03-10T22:45:31.198Z,0.85
2023-03-10T22:48:02.782Z,0.90
2023-03-10T22:50:44.706Z,1.20
2023-03-10T22:53:16.497Z,1.20
2023-03-10T22:55:46.772Z,1.17
2023-03-10T22:58:16.433Z,1.10
2023-03-10T23:00:44.993Z,1.73
2023-03-10T23:03:14.367Z,1.05
2023-03-10T23:05:45.718Z,0.85
2023-03-10T23:08:17.354Z,1.85
2023-03-10T23:10:46.380Z,0.95
2023-03-10T23:13:16.771Z,0.80
2023-03-10T23:15:45.994Z,1.00
2023-03-10T23:18:17.384Z,0.77
2023-03-10T23:20:50.989Z,0.80
2023-03-10T23:23:22.392Z,0.93
2023-03-10T23:25:52.628Z,1.45
2023-03-10T23:28:22.071Z,0.85
2023-03-10T23:30:51.677Z,0.70
2023-03-10T23:33:22.799Z,1.60
2023-03-10T23:35:56.854Z,0.57
2023-03-10T23:38:28.148Z,0.60
2023-03-10T23:40:56.512Z,0.68
2023-03-10T23:43:25.140Z,0.57
2023-03-10T23:45:56.413Z,0.70
2023-03-10T23:48:25.250Z,0.60
2023-03-10T23:50:53.581Z,0.57
2023-03-10T23:53:22.220Z,0.40
2023-03-10T23:55:51.101Z,0.57
2023-03-10T23:58:19.935Z,0.43
